createdAt,value
2019-02-24T00:01:23.453Z,11.85
2019-02-24T00:03:50.839Z,10.85
2019-02-24T00:06:18.318Z,10.60
2019-02-24T00:08:45.754Z,10.80
2019-02-24T00:11:13.200Z,10.35
2019-02-24T00:13:40.614Z,9.90
2019-02-24T00:16:07.961Z,9.73
2019-02-24T00:18:35.350Z,10.13
2019-02-24T00:21:02.816Z,11.00
2019-02-24T00:23:30.167Z,10.50
2019-02-24T00:25:57.591Z,9.63
2019-02-24T00:28:24.976Z,10.00
2019-02-24T00:30:52.415Z,9.83
2019-02-24T00:33:19.763Z,10.05
2019-02-24T00:35:47.181Z,9.73
2019-02-24T00:38:14.837Z,9.43
2019-02-24T00:40:42.418Z,9.80
2019-02-24T00:43:09.929Z,10.50
2019-02-24T00:45:37.352Z,8.95
2019-02-24T00:48:04.744Z,11.63
2019-02-24T00:50:32.142Z,11.28
2019-02-24T00:52:59.498Z,10.80
2019-02-24T00:55:26.915Z,10.32
2019-02-24T00:57:54.266Z,9.78
2019-02-24T01:00:21.789Z,8.78
2019-02-24T01:02:49.183Z,8.28
2019-02-24T01:05:16.583Z,9.35
2019-02-24T01:07:44.856Z,9.00
2019-02-24T01:10:12.386Z,8.50
2019-02-24T01:12:39.765Z,8.18
2019-02-24T01:15:07.561Z,8.65
2019-02-24T01:17:34.930Z,9.13
2019-02-24T01:20:02.354Z,8.65
2019-02-24T01:22:30.930Z,8.03
2019-02-24T01:24:58.318Z,7.25
2019-02-24T01:27:25.683Z,7.58
2019-02-24T01:29:52.960Z,6.70
2019-02-24T01:32:20.360Z,7.47
2019-02-24T01:34:47.622Z,6.72
2019-02-24T01:37:15.096Z,6.90
2019-02-24T01:39:42.446Z,6.50
2019-02-24T01:42:09.819Z,7.00
2019-02-24T01:44:37.216Z,6.97
2019-02-24T01:47:04.619Z,6.50
2019-02-24T01:49:31.968Z,5.72
2019-02-24T01:51:59.369Z,6.80
2019-02-24T01:54:26.728Z,6.40
2019-02-24T01:56:54.096Z,6.17
2019-02-24T01:59:21.497Z,6.72
2019-02-24T02:01:48.883Z,6.80
2019-02-24T02:04:16.278Z,6.55
2019-02-24T02:06:43.671Z,7.20
2019-02-24T02:09:11.059Z,7.28
2019-02-24T02:11:38.561Z,7.28
2019-02-24T02:14:05.944Z,6.60
2019-02-24T02:16:34.315Z,6.53
2019-02-24T02:19:01.755Z,6.65
2019-02-24T02:21:29.193Z,7.55
2019-02-24T02:23:57.668Z,6.85
2019-02-24T02:26:25.014Z,6.67
2019-02-24T02:28:52.375Z,6.50
2019-02-24T02:31:19.794Z,8.45
2019-02-24T02:33:47.223Z,9.08
2019-02-24T02:36:14.595Z,8.75
2019-02-24T02:38:42.060Z,6.40
2019-02-24T02:41:09.399Z,6.72
2019-02-24T02:43:36.723Z,6.70
2019-02-24T02:46:04.207Z,6.35
2019-02-24T02:48:31.526Z,6.87
2019-02-24T02:50:58.891Z,6.70
2019-02-24T02:53:26.202Z,6.67
2019-02-24T02:55:53.608Z,6.22
2019-02-24T02:58:21.001Z,7.33
2019-02-24T03:00:48.349Z,5.87
2019-02-24T03:03:15.835Z,6.72
2019-02-24T03:05:53.498Z,6.40
2019-02-24T03:08:22.697Z,7.08
2019-02-24T03:10:50.120Z,6.40
2019-02-24T03:13:17.545Z,6.45
2019-02-24T03:15:44.939Z,7.08
2019-02-24T03:18:12.283Z,5.87
2019-02-24T03:20:39.482Z,6.75
2019-02-24T03:23:06.916Z,7.28
2019-02-24T03:25:34.392Z,6.92
2019-02-24T03:28:01.637Z,6.65
2019-02-24T03:30:29.047Z,7.20
2019-02-24T03:32:56.377Z,6.45
2019-02-24T03:35:23.773Z,6.30
2019-02-24T03:37:51.165Z,6.50
2019-02-24T03:40:18.594Z,6.30
2019-02-24T03:42:46.028Z,6.87
2019-02-24T03:45:13.281Z,6.50
2019-02-24T03:47:40.722Z,6.03
2019-02-24T03:50:09.287Z,5.78
2019-02-24T03:52:36.713Z,5.75
2019-02-24T03:55:04.114Z,6.65
2019-02-24T03:57:31.481Z,6.17
2019-02-24T03:59:59.165Z,6.42
2019-02-24T04:02:26.703Z,6.83
2019-02-24T04:04:54.208Z,6.35
2019-02-24T04:07:21.643Z,5.95
2019-02-24T04:09:49.169Z,5.80
2019-02-24T04:12:16.549Z,5.78
2019-02-24T04:14:43.918Z,6.28
2019-02-24T04:17:12.238Z,6.10
2019-02-24T04:19:39.626Z,5.92
2019-02-24T04:22:06.967Z,6.20
2019-02-24T04:24:34.310Z,6.50
2019-02-24T04:27:01.675Z,6.37
2019-02-24T04:29:29.073Z,6.22
2019-02-24T04:31:56.507Z,6.60
2019-02-24T04:34:23.929Z,6.35
2019-02-24T04:36:51.362Z,6.60
2019-02-24T04:39:18.780Z,6.62
2019-02-24T04:41:46.138Z,6.12
2019-02-24T04:44:13.553Z,6.58
2019-02-24T04:46:40.917Z,6.53
2019-02-24T04:49:08.189Z,6.25
2019-02-24T04:51:35.606Z,6.30
2019-02-24T04:54:03.092Z,6.22
2019-02-24T04:56:30.437Z,5.55
2019-02-24T04:58:57.866Z,5.35
2019-02-24T05:01:25.117Z,6.08
2019-02-24T05:03:52.605Z,5.72
2019-02-24T05:06:19.934Z,6.28
2019-02-24T05:08:47.220Z,6.00
2019-02-24T05:11:14.642Z,6.50
2019-02-24T05:13:41.979Z,6.45
2019-02-24T05:16:09.351Z,6.40
2019-02-24T05:18:36.751Z,6.00
2019-02-24T05:21:04.231Z,5.83
2019-02-24T05:23:32.895Z,6.37
2019-02-24T05:26:00.260Z,5.78
2019-02-24T05:28:27.773Z,6.05
2019-02-24T05:30:55.105Z,6.47
2019-02-24T05:33:22.430Z,5.65
2019-02-24T05:35:49.850Z,5.72
2019-02-24T05:38:17.198Z,5.92
2019-02-24T05:40:44.546Z,4.85
2019-02-24T05:43:11.914Z,5.75
2019-02-24T05:45:39.285Z,5.25
2019-02-24T05:48:06.630Z,5.28
2019-02-24T05:50:33.912Z,6.15
2019-02-24T05:53:01.234Z,6.50
2019-02-24T05:55:28.567Z,6.08
2019-02-24T05:57:55.989Z,6.37
2019-02-24T06:00:23.423Z,5.80
2019-02-24T06:02:50.826Z,5.53
2019-02-24T06:05:18.246Z,5.50
2019-02-24T06:07:45.733Z,6.50
2019-02-24T06:10:13.092Z,5.60
2019-02-24T06:12:40.526Z,5.78
2019-02-24T06:15:07.846Z,5.53
2019-02-24T06:17:35.140Z,5.47
2019-02-24T06:20:02.661Z,5.20
2019-02-24T06:22:30.204Z,5.12
2019-02-24T06:24:57.594Z,4.83
2019-02-24T06:27:24.999Z,5.20
2019-02-24T06:29:52.415Z,4.97
2019-02-24T06:32:19.820Z,4.75
2019-02-24T06:34:47.291Z,5.00
2019-02-24T06:37:15.802Z,4.20
2019-02-24T06:39:43.233Z,4.80
2019-02-24T06:42:10.685Z,5.22
2019-02-24T06:44:38.076Z,5.03
2019-02-24T06:47:05.489Z,4.85
2019-02-24T06:49:33.065Z,5.05
2019-02-24T06:52:01.414Z,4.40
2019-02-24T06:54:28.755Z,5.12
2019-02-24T06:56:56.137Z,4.72
2019-02-24T06:59:23.738Z,4.80
2019-02-24T07:01:51.186Z,5.65
2019-02-24T07:04:18.634Z,4.92
2019-02-24T07:06:46.116Z,4.65
2019-02-24T07:09:13.353Z,4.75
2019-02-24T07:11:40.831Z,4.85
2019-02-24T07:14:08.245Z,4.45
2019-02-24T07:16:35.712Z,4.50
2019-02-24T07:19:03.127Z,5.37
2019-02-24T07:21:30.586Z,5.05
2019-02-24T07:23:58.029Z,4.72
2019-02-24T07:26:25.498Z,4.70
2019-02-24T07:28:53.940Z,4.78
2019-02-24T07:31:21.365Z,4.80
2019-02-24T07:33:48.702Z,4.70
2019-02-24T07:36:16.202Z,4.90
2019-02-24T07:38:43.715Z,4.95
2019-02-24T07:41:11.111Z,4.60
2019-02-24T07:43:38.493Z,4.90
2019-02-24T07:46:06.241Z,4.50
2019-02-24T07:48:33.701Z,4.67
2019-02-24T07:51:00.982Z,4.83
2019-02-24T07:53:28.413Z,4.85
2019-02-24T07:55:55.839Z,4.53
2019-02-24T07:58:23.245Z,5.78
2019-02-24T08:00:50.689Z,4.30
2019-02-24T08:03:17.961Z,4.03
2019-02-24T08:05:45.441Z,4.37
2019-02-24T08:08:16.468Z,4.50
2019-02-24T08:10:42.283Z,3.92
2019-02-24T08:13:09.748Z,4.60
2019-02-24T08:15:37.276Z,4.40
2019-02-24T08:18:04.749Z,4.25
2019-02-24T08:20:33.427Z,4.10
2019-02-24T08:23:01.050Z,4.40
2019-02-24T08:25:28.434Z,4.12
2019-02-24T08:27:55.972Z,4.75
2019-02-24T08:30:23.316Z,3.55
2019-02-24T08:32:50.751Z,4.60
2019-02-24T08:35:18.156Z,4.65
2019-02-24T08:37:45.548Z,4.47
2019-02-24T08:40:12.967Z,4.40
2019-02-24T08:42:40.412Z,3.98
2019-02-24T08:45:08.056Z,3.90
2019-02-24T08:47:35.486Z,4.35
2019-02-24T08:50:03.538Z,4.45
2019-02-24T08:52:31.007Z,4.05
2019-02-24T08:54:58.568Z,3.85
2019-02-24T08:57:25.919Z,3.90
2019-02-24T08:59:53.431Z,4.15
2019-02-24T09:02:20.809Z,3.87
2019-02-24T09:04:48.318Z,3.92
2019-02-24T09:07:16.018Z,4.25
2019-02-24T09:09:43.410Z,4.55
2019-02-24T09:12:10.833Z,4.30
2019-02-24T09:14:38.742Z,4.60
2019-02-24T09:17:06.114Z,4.12
2019-02-24T09:19:33.539Z,4.47
2019-02-24T09:22:00.925Z,5.33
2019-02-24T09:24:29.482Z,4.47
2019-02-24T09:26:56.891Z,4.53
2019-02-24T09:29:24.252Z,4.60
2019-02-24T09:31:51.758Z,4.95
2019-02-24T09:34:19.315Z,4.75
2019-02-24T09:36:46.673Z,4.97
2019-02-24T09:39:14.049Z,4.58
2019-02-24T09:41:41.762Z,4.42
2019-02-24T09:44:09.097Z,4.70
2019-02-24T09:46:37.517Z,4.00
2019-02-24T09:49:04.935Z,4.28
2019-02-24T09:51:32.338Z,4.30
2019-02-24T09:53:59.744Z,4.70
2019-02-24T09:56:27.387Z,4.40
2019-02-24T09:58:54.747Z,5.20
2019-02-24T10:01:22.194Z,4.95
2019-02-24T10:03:49.769Z,14.83
2019-02-24T10:06:17.135Z,6.03
2019-02-24T10:08:44.510Z,11.78
2019-02-24T10:11:13.301Z,7.37
2019-02-24T10:13:40.779Z,4.90
2019-02-24T10:16:08.134Z,4.08
2019-02-24T10:18:35.529Z,3.87
2019-02-24T10:21:03.086Z,3.83
2019-02-24T10:23:30.329Z,4.05
2019-02-24T10:25:57.724Z,4.17
2019-02-24T10:28:25.095Z,3.95
2019-02-24T10:30:52.589Z,4.28
2019-02-24T10:33:19.978Z,4.60
2019-02-24T10:35:47.447Z,4.37
2019-02-24T10:38:14.979Z,4.50
2019-02-24T10:40:42.369Z,4.28
2019-02-24T10:43:09.745Z,4.12
2019-02-24T10:45:37.103Z,5.22
2019-02-24T10:48:13.534Z,4.28
2019-02-24T10:50:33.773Z,4.30
2019-02-24T10:53:01.192Z,3.77
2019-02-24T10:55:28.593Z,4.87
2019-02-24T10:57:56.562Z,3.95
2019-02-24T11:00:23.882Z,4.25
2019-02-24T11:02:51.384Z,4.70
2019-02-24T11:05:18.788Z,4.20
2019-02-24T11:07:46.266Z,4.35
2019-02-24T11:10:14.694Z,4.28
2019-02-24T11:12:42.061Z,4.47
2019-02-24T11:15:09.817Z,4.03
2019-02-24T11:17:37.220Z,3.60
2019-02-24T11:20:05.764Z,3.60
2019-02-24T11:22:34.230Z,4.08
2019-02-24T11:25:01.629Z,3.60
2019-02-24T11:27:29.178Z,3.58
2019-02-24T11:29:56.601Z,3.92
2019-02-24T11:32:23.996Z,3.55
2019-02-24T11:34:51.375Z,3.40
2019-02-24T11:37:18.811Z,3.77
2019-02-24T11:39:46.097Z,3.83
2019-02-24T11:42:14.564Z,3.40
2019-02-24T11:44:41.934Z,3.20
2019-02-24T11:47:09.282Z,3.52
2019-02-24T11:49:36.644Z,3.80
2019-02-24T11:52:05.063Z,4.40
2019-02-24T11:54:32.503Z,3.40
2019-02-24T11:56:59.891Z,3.08
2019-02-24T11:59:27.344Z,3.58
2019-02-24T12:01:54.713Z,3.30
2019-02-24T12:04:22.046Z,3.20
2019-02-24T12:06:49.481Z,3.40
2019-02-24T12:09:16.856Z,3.20
2019-02-24T12:11:44.219Z,3.20
2019-02-24T12:14:11.608Z,3.20
2019-02-24T12:16:39.060Z,2.92
2019-02-24T12:19:06.500Z,3.20
2019-02-24T12:21:34.099Z,3.02
2019-02-24T12:24:01.518Z,3.02
2019-02-24T12:26:28.966Z,3.42
2019-02-24T12:28:56.557Z,3.58
2019-02-24T12:31:24.004Z,2.92
2019-02-24T12:33:51.363Z,3.20
2019-02-24T12:36:18.761Z,2.80
2019-02-24T12:38:46.123Z,2.95
2019-02-24T12:41:15.342Z,3.00
2019-02-24T12:43:42.832Z,2.70
2019-02-24T12:46:10.238Z,2.60
2019-02-24T12:48:37.731Z,2.95
2019-02-24T12:51:05.253Z,3.10
2019-02-24T12:53:33.786Z,2.65
2019-02-24T12:56:01.169Z,2.80
2019-02-24T12:58:28.523Z,2.65
2019-02-24T13:00:55.913Z,2.90
2019-02-24T13:03:24.211Z,2.90
2019-02-24T13:05:51.747Z,3.37
2019-02-24T13:08:19.176Z,2.98
2019-02-24T13:10:46.618Z,3.70
2019-02-24T13:13:14.008Z,3.40
2019-02-24T13:15:41.526Z,3.70
2019-02-24T13:18:08.880Z,4.15
2019-02-24T13:20:36.369Z,3.50
2019-02-24T13:23:03.840Z,3.50
2019-02-24T13:25:32.185Z,3.80
2019-02-24T13:27:59.567Z,3.60
2019-02-24T13:30:26.928Z,9.43
2019-02-24T13:32:54.422Z,3.08
2019-02-24T13:35:21.890Z,3.40
2019-02-24T13:37:49.236Z,3.33
2019-02-24T13:40:16.653Z,3.27
2019-02-24T13:42:44.044Z,3.20
2019-02-24T13:45:12.347Z,4.05
2019-02-24T13:47:39.834Z,3.77
2019-02-24T13:50:08.471Z,3.40
2019-02-24T13:52:35.862Z,3.10
2019-02-24T13:55:03.825Z,2.80
2019-02-24T13:57:31.247Z,3.10
2019-02-24T13:59:58.766Z,3.55
2019-02-24T14:02:27.292Z,2.92
2019-02-24T14:04:54.710Z,2.90
2019-02-24T14:07:22.054Z,2.58
2019-02-24T14:09:49.408Z,2.85
2019-02-24T14:12:16.670Z,2.85
2019-02-24T14:14:48.976Z,3.20
2019-02-24T14:17:13.560Z,3.35
2019-02-24T14:19:40.920Z,2.98
2019-02-24T14:22:09.821Z,2.77
2019-02-24T14:24:37.243Z,3.25
2019-02-24T14:27:04.726Z,3.20
2019-02-24T14:29:32.110Z,3.25
2019-02-24T14:31:59.467Z,2.50
2019-02-24T14:34:26.863Z,2.62
2019-02-24T14:36:54.256Z,2.75
2019-02-24T14:39:22.294Z,2.83
2019-02-24T14:41:49.779Z,3.10
2019-02-24T14:44:17.114Z,2.75
2019-02-24T14:46:44.477Z,2.92
2019-02-24T14:49:11.870Z,3.40
2019-02-24T14:51:39.241Z,3.00
2019-02-24T14:54:06.587Z,3.12
2019-02-24T14:56:33.977Z,2.92
2019-02-24T14:59:01.392Z,3.17
2019-02-24T15:01:28.870Z,2.85
2019-02-24T15:03:56.221Z,3.10
2019-02-24T15:06:23.650Z,3.40
2019-02-24T15:08:51.049Z,3.50
2019-02-24T15:11:18.473Z,3.25
2019-02-24T15:13:45.813Z,2.90
2019-02-24T15:16:13.242Z,3.60
2019-02-24T15:18:40.614Z,3.30
2019-02-24T15:21:08.064Z,3.55
2019-02-24T15:23:35.491Z,4.15
2019-02-24T15:26:03.693Z,2.72
2019-02-24T15:28:30.972Z,3.85
2019-02-24T15:30:59.483Z,3.05
2019-02-24T15:33:26.994Z,3.00
2019-02-24T15:35:54.414Z,3.08
2019-02-24T15:38:22.869Z,3.10
2019-02-24T15:40:50.306Z,3.08
2019-02-24T15:43:17.802Z,3.10
2019-02-24T15:45:45.143Z,4.20
2019-02-24T15:48:12.591Z,2.98
2019-02-24T15:50:39.942Z,3.40
2019-02-24T15:53:07.419Z,3.05
2019-02-24T15:55:34.839Z,3.20
2019-02-24T15:58:02.209Z,2.95
2019-02-24T16:00:29.652Z,2.83
2019-02-24T16:03:01.421Z,3.08
2019-02-24T16:05:28.886Z,2.80
2019-02-24T16:07:56.279Z,3.30
2019-02-24T16:10:23.692Z,2.60
2019-02-24T16:12:51.155Z,3.02
2019-02-24T16:15:18.475Z,3.40
2019-02-24T16:17:45.949Z,3.17
2019-02-24T16:20:18.890Z,2.83
2019-02-24T16:22:46.345Z,2.65
2019-02-24T16:25:13.783Z,3.05
2019-02-24T16:27:41.315Z,2.52
2019-02-24T16:30:09.824Z,2.67
2019-02-24T16:32:37.149Z,3.42
2019-02-24T16:35:05.013Z,3.40
2019-02-24T16:37:32.434Z,3.45
2019-02-24T16:39:59.873Z,2.87
2019-02-24T16:42:27.396Z,2.98
2019-02-24T16:44:54.759Z,3.17
2019-02-24T16:47:22.150Z,3.05
2019-02-24T16:49:49.636Z,3.77
2019-02-24T16:52:17.029Z,3.08
2019-02-24T16:54:52.531Z,3.00
2019-02-24T16:57:13.786Z,3.00
2019-02-24T16:59:41.191Z,3.00
2019-02-24T17:02:08.722Z,3.30
2019-02-24T17:04:36.179Z,2.77
2019-02-24T17:07:03.590Z,3.25
2019-02-24T17:09:30.961Z,2.72
2019-02-24T17:11:58.376Z,3.00
2019-02-24T17:14:25.867Z,3.22
2019-02-24T17:17:01.375Z,3.35
2019-02-24T17:19:22.754Z,3.40
2019-02-24T17:21:50.355Z,3.25
2019-02-24T17:24:17.807Z,3.62
2019-02-24T17:26:45.347Z,2.67
2019-02-24T17:29:12.777Z,3.52
2019-02-24T17:31:40.159Z,2.70
2019-02-24T17:34:07.629Z,3.80
2019-02-24T17:36:35.114Z,3.37
2019-02-24T17:39:03.997Z,3.02
2019-02-24T17:41:33.504Z,3.62
2019-02-24T17:44:00.915Z,3.05
2019-02-24T17:46:28.392Z,3.62
2019-02-24T17:48:55.818Z,3.45
2019-02-24T17:51:23.447Z,3.65
2019-02-24T17:53:50.806Z,3.98
2019-02-24T17:56:18.248Z,3.05
2019-02-24T17:58:45.834Z,4.28
2019-02-24T18:01:13.400Z,4.62
2019-02-24T18:03:40.953Z,4.75
2019-02-24T18:06:08.343Z,4.80
2019-02-24T18:08:35.784Z,4.37
2019-02-24T18:11:03.251Z,4.50
2019-02-24T18:13:30.628Z,4.10
2019-02-24T18:15:58.035Z,4.70
2019-02-24T18:18:25.355Z,4.75
2019-02-24T18:20:52.748Z,4.22
2019-02-24T18:23:20.317Z,18.02
2019-02-24T18:25:47.731Z,16.57
2019-02-24T18:28:15.239Z,10.90
2019-02-24T18:30:42.654Z,8.60
2019-02-24T18:33:10.045Z,5.92
2019-02-24T18:35:37.522Z,4.50
2019-02-24T18:38:04.950Z,5.33
2019-02-24T18:40:32.333Z,4.60
2019-02-24T18:43:00.872Z,5.17
2019-02-24T18:45:28.365Z,4.70
2019-02-24T18:47:55.867Z,4.90
2019-02-24T18:50:23.418Z,4.17
2019-02-24T18:52:54.722Z,4.30
2019-02-24T18:55:22.122Z,3.58
2019-02-24T18:57:51.030Z,3.85
2019-02-24T19:00:19.001Z,4.40
2019-02-24T19:02:47.615Z,4.00
2019-02-24T19:05:17.280Z,3.58
2019-02-24T19:07:45.435Z,3.80
2019-02-24T19:10:14.003Z,4.42
2019-02-24T19:12:41.460Z,4.20
2019-02-24T19:15:11.987Z,4.33
2019-02-24T19:17:39.555Z,4.20
2019-02-24T19:20:07.934Z,3.60
2019-02-24T19:22:35.566Z,3.80
2019-02-24T19:25:03.235Z,4.67
2019-02-24T19:27:31.363Z,3.83
2019-02-24T19:29:59.072Z,4.55
2019-02-24T19:32:26.604Z,4.30
2019-02-24T19:34:54.092Z,4.35
2019-02-24T19:37:21.587Z,4.30
2019-02-24T19:39:49.104Z,4.03
2019-02-24T19:42:16.486Z,4.00
2019-02-24T19:44:44.018Z,5.22
2019-02-24T19:47:12.217Z,4.60
2019-02-24T19:49:39.745Z,4.70
2019-02-24T19:52:07.116Z,6.00
2019-02-24T19:54:34.730Z,7.72
2019-02-24T19:57:02.200Z,6.47
2019-02-24T19:59:29.572Z,6.08
2019-02-24T20:01:57.031Z,4.00
2019-02-24T20:04:24.549Z,4.65
2019-02-24T20:06:53.209Z,3.70
2019-02-24T20:09:20.703Z,4.37
2019-02-24T20:11:48.199Z,5.28
2019-02-24T20:14:16.172Z,5.47
2019-02-24T20:16:45.366Z,4.78
2019-02-24T20:19:13.248Z,6.08
2019-02-24T20:21:40.779Z,5.75
2019-02-24T20:24:08.364Z,5.40
2019-02-24T20:26:35.706Z,4.90
2019-02-24T20:29:03.220Z,4.92
2019-02-24T20:31:30.819Z,5.00
2019-02-24T20:33:58.379Z,5.37
2019-02-24T20:36:26.420Z,5.15
2019-02-24T20:38:53.754Z,4.97
2019-02-24T20:41:21.160Z,5.12
2019-02-24T20:43:48.629Z,4.95
2019-02-24T20:46:16.086Z,4.60
2019-02-24T20:48:43.604Z,5.03
2019-02-24T20:51:11.013Z,4.90
2019-02-24T20:53:38.436Z,5.20
2019-02-24T20:56:05.774Z,5.05
2019-02-24T20:58:33.182Z,5.70
2019-02-24T21:01:00.596Z,4.92
2019-02-24T21:03:28.028Z,5.37
2019-02-24T21:05:55.401Z,7.00
2019-02-24T21:08:22.843Z,8.05
2019-02-24T21:10:50.271Z,7.05
2019-02-24T21:13:17.657Z,6.00
2019-02-24T21:15:45.049Z,5.85
2019-02-24T21:18:12.506Z,5.90
2019-02-24T21:20:39.998Z,5.00
2019-02-24T21:23:07.353Z,4.37
2019-02-24T21:25:34.816Z,4.12
2019-02-24T21:28:02.278Z,5.20
2019-02-24T21:30:31.709Z,4.67
2019-02-24T21:32:58.998Z,4.08
2019-02-24T21:35:26.415Z,4.90
2019-02-24T21:37:53.828Z,4.70
2019-02-24T21:40:23.361Z,4.37
2019-02-24T21:42:50.599Z,4.75
2019-02-24T21:45:18.403Z,4.87
2019-02-24T21:47:45.775Z,4.17
2019-02-24T21:50:14.707Z,5.10
2019-02-24T21:52:42.162Z,4.47
2019-02-24T21:55:09.654Z,4.35
2019-02-24T21:57:37.098Z,4.55
2019-02-24T22:00:07.416Z,5.05
2019-02-24T22:02:35.113Z,4.92
2019-02-24T22:05:02.879Z,5.25
2019-02-24T22:07:30.285Z,5.47
2019-02-24T22:09:57.786Z,5.25
2019-02-24T22:12:25.212Z,4.85
2019-02-24T22:14:52.603Z,4.62
2019-02-24T22:17:20.009Z,4.90
2019-02-24T22:19:47.473Z,5.33
2019-02-24T22:22:14.898Z,5.50
2019-02-24T22:24:42.201Z,5.17
2019-02-24T22:27:09.550Z,5.50
2019-02-24T22:29:36.922Z,4.83
2019-02-24T22:32:04.233Z,5.25
2019-02-24T22:34:31.691Z,5.08
2019-02-24T22:36:59.084Z,4.83
2019-02-24T22:39:26.487Z,5.17
2019-02-24T22:41:54.271Z,4.80
2019-02-24T22:44:21.624Z,5.50
2019-02-24T22:46:49.456Z,4.67
2019-02-24T22:49:16.798Z,4.70
2019-02-24T22:51:44.205Z,4.62
2019-02-24T22:54:11.637Z,5.25
2019-02-24T22:56:39.035Z,5.80
2019-02-24T22:59:06.474Z,5.37
2019-02-24T23:01:37.245Z,4.92
2019-02-24T23:04:10.991Z,5.28
2019-02-24T23:06:38.570Z,5.58
2019-02-24T23:09:10.226Z,5.97
2019-02-24T23:11:38.379Z,5.90
2019-02-24T23:14:05.740Z,6.17
2019-02-24T23:16:33.200Z,6.33
2019-02-24T23:19:00.599Z,6.53
2019-02-24T23:21:27.979Z,7.28
2019-02-24T23:23:55.330Z,7.08
2019-02-24T23:26:22.747Z,6.90
2019-02-24T23:28:50.255Z,6.40
2019-02-24T23:31:17.714Z,6.90
2019-02-24T23:33:45.080Z,5.95
2019-02-24T23:36:12.465Z,6.45
2019-02-24T23:38:39.886Z,6.58
2019-02-24T23:41:07.959Z,6.25
2019-02-24T23:43:35.334Z,6.50
2019-02-24T23:46:02.688Z,6.95
2019-02-24T23:48:30.027Z,7.83
2019-02-24T23:50:57.399Z,8.93
2019-02-24T23:53:24.783Z,9.78
2019-02-24T23:55:52.150Z,10.45
2019-02-24T23:58:19.618Z,9.90
